• Join FlightAware (Why Join?)
  • Login
  • US Flag 
04:29AM EDT


 

Airport Tracker/Info


-or-


 

Live Flight TrackerFlight Track Log ✈ ASA124 ✈ 07-Jun-2013 ✈ PAFA / FAI - KSEA

Flight Track Log - Related Links

Times and Time Zones

All times are in EDT time to prevent confusion due to time zone crossing. See the ASA124 flight status page for this flight to view local times or setup timezone preferences in your user account.

Time Position Orientation Groundspeed Altitude Reporting Facility
EDT Latitude Longitude Course Direction KTS MPH feet Rate Location/Type
08:39PM 64.7833 -147.7167 123° Southeast 240 276 3,800  Level Anchorage Center
08:40PM 64.7167 -147.6167 147° Southeast 290 334 6,600 2,880 Climbing Anchorage Center
08:41PM 64.6667 -147.4833 131° Southeast 280 322 9,700 3,180 Climbing Anchorage Center
08:42PM 64.6167 -147.3167 125° Southeast 310 357 13,000 2,820 Climbing Anchorage Center
08:43PM 64.5667 -147.1333 122° Southeast 360 414 15,400 2,640 Climbing Anchorage Center
08:44PM 64.3683 -146.4488 123° Southeast  Level FlightAware Approximate
08:44PM 64.5000 -146.9000 123° Southeast 400 460 18,400  Level Anchorage Center
08:45PM 64.3000 -146.2083 123° Southeast  Level FlightAware Approximate
08:45PM 64.4500 -146.7000 120° Southeast 410 472 20,900  Level Anchorage Center
08:46PM 64.3833 -146.4500 122° Southeast 430 495 23,400 2,100 Climbing Anchorage Center
08:47PM 64.3167 -146.2167 123° Southeast 440 506 25,200 1,860 Climbing Anchorage Center
08:48PM 64.2333 -145.9667 127° Southeast 460 529 27,200 1,800 Climbing Anchorage Center
08:49PM 64.1667 -145.7333 123° Southeast 460 529 28,900 1,500 Climbing Anchorage Center
08:50PM 64.0833 -145.4667 125° Southeast 470 541 30,300 1,260 Climbing Anchorage Center
08:51PM 64.0167 -145.2333 123° Southeast 480 552 31,500 1,560 Climbing Anchorage Center
08:52PM 63.9333 -144.9667 125° Southeast 480 552 33,500 1,620 Climbing Anchorage Center
08:53PM 63.8667 -144.7333 123° Southeast 470 541 34,800 1,380 Climbing Anchorage Center
08:54PM 63.7833 -144.5000 129° Southeast 460 529 36,300 1,080 Climbing Anchorage Center
08:56PM 63.7167 -144.2667 123° Southeast 450 518 37,000 300 Climbing Anchorage Center
08:57PM 63.6500 -144.0333 123° Southeast 450 518 37,000  Level Anchorage Center
08:58PM 63.5667 -143.8000 129° Southeast 460 529 37,000  Level Anchorage Center
08:59PM 63.4667 -143.6167 141° Southeast 460 529 37,000  Level Anchorage Center
09:00PM 63.3833 -143.4333 135° Southeast 460 529 37,000  Level Anchorage Center
09:01PM 63.2833 -143.2333 138° Southeast 460 529 37,000  Level Anchorage Center
09:02PM 63.1833 -143.0500 140° Southeast 460 529 37,000  Level Anchorage Center
09:03PM 63.0833 -142.8667 140° Southeast 460 529 37,000  Level Anchorage Center
09:04PM 62.9833 -142.6833 140° Southeast 460 529 37,000  Level Anchorage Center
09:05PM 62.9167 -142.4500 122° Southeast 450 518 37,000  Level Anchorage Center
09:06PM 62.8500 -142.2000 120° Southeast 460 529 37,000  Level Anchorage Center
09:07PM 62.7833 -141.9833 124° Southeast 450 518 37,000  Level Anchorage Center
09:08PM 62.7167 -141.7500 122° Southeast 460 529 37,000  Level Anchorage Center
09:09PM 62.6333 -141.5167 128° Southeast 450 518 37,000  Level Anchorage Center
09:10PM 62.5667 -141.2833 122° Southeast 470 541 37,000  Level Anchorage Center
09:11PM 62.5000 -141.0500 122° Southeast 470 541 37,000  Level Anchorage Center
09:14PM 62.3066 -140.7408 143° Southeast  Level FlightAware Approximate
09:18PM 61.7500 -139.7000 145° Southeast 460 529 37,000  Level Anchorage Center
09:20PM 61.6219 -139.4526 137° Southeast  Level Estimated
09:20PM 61.5500 -139.3333 137° Southeast 460 529 37,000  Level Anchorage Center
09:21PM 61.5945 -139.6448 144° Southeast  Level FlightAware Approximate
09:21PM 61.4500 -139.1667 141° Southeast 470 541 37,000  Level Anchorage Center
09:22PM 61.4921 -139.4923 145° Southeast  Level FlightAware Approximate
09:22PM 61.3500 -138.9833 139° Southeast 460 529 37,000  Level Anchorage Center
09:23PM 61.3895 -139.3409 145° Southeast  Level FlightAware Approximate
09:23PM 61.2333 -138.8500 151° Southeast 460 529 37,000  Level Anchorage Center
09:24PM 61.1333 -138.7167 147° Southeast 460 529 37,000  Level Anchorage Center
09:25PM 61.0167 -138.5667 148° Southeast 460 529 37,000  Level Anchorage Center
09:26PM 60.9167 -138.4333 147° Southeast 460 529 37,000  Level Anchorage Center
09:27PM 60.8000 -138.2833 148° Southeast 460 529 37,000  Level Anchorage Center
09:28PM 60.6833 -138.1500 151° Southeast 460 529 37,000  Level Anchorage Center
09:29PM 60.5833 -138.0167 147° Southeast 450 518 37,000  Level Anchorage Center
09:30PM 60.4667 -137.8833 151° Southeast 450 518 37,000  Level Anchorage Center
09:31PM 60.3667 -137.7500 147° Southeast 460 529 37,000  Level Anchorage Center
09:32PM 60.2500 -137.6167 150° Southeast 460 529 37,000  Level Anchorage Center
09:33PM 60.1500 -137.4833 146° Southeast 460 529 37,000  Level Anchorage Center
09:34PM 60.0333 -137.3500 150° Southeast 460 529 37,000  Level Anchorage Center
09:35PM 59.9167 -137.2167 150° Southeast 460 529 37,000  Level Anchorage Center
09:36PM 59.8167 -137.0833 146° Southeast 460 529 37,000  Level Anchorage Center
09:37PM 59.7000 -136.9500 150° Southeast 460 529 37,000  Level Anchorage Center
09:38PM 59.6000 -136.8167 146° Southeast 460 529 37,000  Level Anchorage Center
09:39PM 59.4833 -136.7000 153° Southeast 470 541 37,000  Level Anchorage Center
09:40PM 59.3667 -136.5667 150° Southeast 470 541 37,000  Level Anchorage Center
09:41PM 59.2500 -136.4333 150° Southeast 460 529 37,000  Level Anchorage Center
09:42PM 59.1500 -136.3000 146° Southeast 460 529 37,000  Level Anchorage Center
09:43PM 59.0333 -136.1833 153° Southeast 470 541 37,000  Level Anchorage Center
09:44PM 58.9167 -136.0500 149° Southeast 460 529 37,000  Level Anchorage Center
09:45PM 58.8167 -135.9333 149° Southeast 470 541 37,000  Level Anchorage Center
09:46PM 58.7000 -135.8167 153° Southeast 460 529 37,000  Level Anchorage Center
09:47PM 58.5833 -135.6833 149° Southeast 470 541 37,000  Level Anchorage Center
09:48PM 58.4667 -135.5667 152° Southeast 460 529 37,000  Level Anchorage Center
09:49PM 58.3500 -135.4500 152° Southeast 470 541 37,000  Level Anchorage Center
09:50PM 58.2500 -135.3167 145° Southeast 470 541 37,000  Level Anchorage Center
09:51PM 58.1333 -135.1833 149° Southeast 470 541 37,000  Level Anchorage Center
09:52PM 58.0333 -135.0167 139° Southeast 470 541 37,000  Level Anchorage Center
09:53PM 57.9333 -134.8500 138° Southeast 480 552 37,000  Level Anchorage Center
09:54PM 57.8333 -134.6833 138° Southeast 480 552 37,000  Level Anchorage Center
09:55PM 57.7333 -134.5167 138° Southeast 480 552 37,000  Level Anchorage Center
09:56PM 57.6333 -134.3500 138° Southeast 480 552 37,000  Level Anchorage Center
09:58PM 57.5333 -134.2000 141° Southeast 480 552 37,000  Level Anchorage Center
09:59PM 57.4333 -134.0333 138° Southeast 480 552 37,000  Level Anchorage Center
10:00PM 57.3167 -133.8667 142° Southeast 480 552 37,000  Level Anchorage Center
10:01PM 57.2167 -133.7167 141° Southeast 480 552 37,000  Level Anchorage Center
10:02PM 57.1167 -133.5500 138° Southeast 480 552 37,000  Level Anchorage Center
10:03PM 57.0167 -133.3833 138° Southeast 480 552 37,000  Level Anchorage Center
10:05PM 56.8466 -133.1354 141° Southeast  Level FlightAware Approximate
10:12PM 56.1513 -132.1147 140° Southeast  Level FlightAware Approximate
10:13PM 56.0518 -131.9709 141° Southeast  Level FlightAware Approximate
10:14PM 55.9521 -131.8279 141° Southeast  Level FlightAware Approximate
10:15PM 55.8522 -131.6857 141° Southeast  Level FlightAware Approximate
10:16PM 55.7522 -131.5441 141° Southeast  Level FlightAware Approximate
10:17PM 55.6520 -131.4033 142° Southeast  Level FlightAware Approximate
10:18PM 55.5517 -131.2632 142° Southeast  Level FlightAware Approximate
10:19PM 55.4511 -131.1239 142° Southeast  Level FlightAware Approximate
10:20PM 55.3505 -130.9852 142° Southeast  Level FlightAware Approximate
10:21PM 55.2496 -130.8472 142° Southeast  Level FlightAware Approximate
10:22PM 55.1487 -130.7100 142° Southeast  Level FlightAware Approximate
10:23PM 55.0491 -130.5700 141° Southeast  Level FlightAware Approximate
10:24PM 54.9512 -130.4267 139° Southeast  Level FlightAware Approximate
10:25PM 54.8519 -130.2869 143° Southeast  Level FlightAware Approximate
10:26PM 54.7499 -130.1534 143° Southeast  Level FlightAware Approximate
10:27PM 54.6476 -130.0207 143° Southeast  Level FlightAware Approximate
10:28PM 54.5453 -129.8886 143° Southeast  Level FlightAware Approximate
10:29PM 54.4427 -129.7572 143° Southeast  Level FlightAware Approximate
10:30PM 54.3401 -129.6264 143° Southeast  Level FlightAware Approximate
10:31PM 54.2373 -129.4963 143° Southeast  Level FlightAware Approximate
10:32PM 54.1344 -129.3668 144° Southeast  Level FlightAware Approximate
10:33PM 54.0313 -129.2380 144° Southeast  Level FlightAware Approximate
10:34PM 53.9281 -129.1098 144° Southeast  Level FlightAware Approximate
10:35PM 53.8248 -128.9822 144° Southeast  Level FlightAware Approximate
10:36PM 53.7213 -128.8553 144° Southeast  Level FlightAware Approximate
10:37PM 53.6177 -128.7290 144° Southeast  Level FlightAware Approximate
10:38PM 53.5139 -128.6033 144° Southeast  Level FlightAware Approximate
10:39PM 53.4101 -128.4782 144° Southeast  Level FlightAware Approximate
10:40PM 53.3061 -128.3538 144° Southeast  Level FlightAware Approximate
10:41PM 53.2019 -128.2299 145° Southeast  Level FlightAware Approximate
10:42PM 53.0977 -128.1067 145° Southeast  Level FlightAware Approximate
10:43PM 52.9933 -127.9840 145° Southeast  Level FlightAware Approximate
10:44PM 52.8888 -127.8619 145° Southeast  Level FlightAware Approximate
10:45PM 52.7841 -127.7405 145° Southeast  Level FlightAware Approximate
10:46PM 52.6794 -127.6196 145° Southeast  Level FlightAware Approximate
10:47PM 52.5747 -127.4988 145° Southeast  Level FlightAware Approximate
10:48PM 52.4700 -127.3783 145° Southeast  Level FlightAware Approximate
10:49PM 52.3652 -127.2583 145° Southeast  Level FlightAware Approximate
10:50PM 52.2603 -127.1390 145° Southeast  Level FlightAware Approximate
10:51PM 52.1553 -127.0201 145° Southeast  Level FlightAware Approximate
10:52PM 52.0501 -126.9019 145° Southeast  Level FlightAware Approximate
10:53PM 51.9448 -126.7842 145° Southeast  Level FlightAware Approximate
10:54PM 51.8394 -126.6670 146° Southeast  Level FlightAware Approximate
10:55PM 51.7339 -126.5504 146° Southeast  Level FlightAware Approximate
10:56PM 51.6283 -126.4344 146° Southeast  Level FlightAware Approximate
10:57PM 51.5226 -126.3189 146° Southeast  Level FlightAware Approximate
10:58PM 51.4167 -126.2039 146° Southeast  Level FlightAware Approximate
10:59PM 51.3108 -126.0894 146° Southeast  Level FlightAware Approximate
11:00PM 51.2047 -125.9755 146° Southeast  Level FlightAware Approximate
11:01PM 51.0985 -125.8621 146° Southeast  Level FlightAware Approximate
11:02PM 50.9922 -125.7492 146° Southeast  Level FlightAware Approximate
11:03PM 50.8858 -125.6368 146° Southeast  Level FlightAware Approximate
11:04PM 50.7797 -125.5242 146° Southeast  Level FlightAware Approximate
11:05PM 50.6735 -125.4118 146° Southeast  Level FlightAware Approximate
11:06PM 50.5672 -125.3000 146° Southeast  Level FlightAware Approximate
11:07PM 50.4607 -125.1887 146° Southeast  Level FlightAware Approximate
11:08PM 50.3542 -125.0779 146° Southeast  Level FlightAware Approximate
11:09PM 50.2476 -124.9676 146° Southeast  Level FlightAware Approximate
11:10PM 50.1409 -124.8577 147° Southeast  Level FlightAware Approximate
11:11PM 50.0331 -124.7507 148° Southeast  Level FlightAware Approximate
11:12PM 49.9251 -124.6444 148° Southeast  Level FlightAware Approximate
11:13PM 49.8170 -124.5386 148° Southeast  Level FlightAware Approximate
11:14PM 49.7088 -124.4332 148° Southeast  Level FlightAware Approximate
11:15PM 49.6006 -124.3283 148° Southeast  Level FlightAware Approximate
11:16PM 49.4922 -124.2239 148° Southeast  Level FlightAware Approximate
11:17PM 49.3839 -124.1196 148° Southeast  Level FlightAware Approximate
11:18PM 49.2755 -124.0156 148° Southeast  Level FlightAware Approximate
11:19PM 49.1671 -123.9120 148° Southeast  Level FlightAware Approximate
11:20PM 49.0587 -123.8086 147° Southeast  Level FlightAware Approximate
11:21PM 48.9518 -123.7017 147° Southeast  Level FlightAware Approximate
11:22PM 48.8450 -123.5949 147° Southeast  Level FlightAware Approximate
11:23PM 48.7366 -123.4933 162° South  Level FlightAware Approximate
11:24PM 48.6312 -123.3882 152° Southeast  Level FlightAware Approximate
11:25PM 48.5182 -123.2979 152° Southeast  Level FlightAware Approximate
11:26PM 48.4107 -123.1940 146° Southeast  Level FlightAware Approximate
11:27PM 48.3042 -123.0875 146° Southeast  Level FlightAware Approximate
11:28PM 48.1935 -122.9918 150° Southeast  Level FlightAware Approximate
11:29PM 48.0825 -122.8968 150° Southeast  Level FlightAware Approximate
11:30PM 47.9944 -122.7611 146° Southeast  Level FlightAware Approximate
11:31PM 47.9154 -122.6141 127° Southeast  Level FlightAware Approximate
11:32PM 47.8309 -122.4714 135° Southeast  Level FlightAware Approximate
11:33PM 47.7263 -122.3649 170° South  Level FlightAware Approximate
11:34PM 47.6002 -122.3418 161° South  Level FlightAware Approximate
11:35PM 47.4744 -122.3103 170° South  Level FlightAware Approximate
11:36PM 47.4499 -122.3118 170° South  Level Estimated
11:37PM 47.4499 -122.3118 170° South  Level Estimated
11:38PM 47.4499 -122.3118 170° South  Level Estimated
11:39PM 47.4499 -122.3118 170° South  Level Estimated
11:40PM 47.4499 -122.3118 170° South  Level Estimated
11:41PM 47.4499 -122.3118 170° South  Level Estimated
11:42PM 47.4499 -122.3118 170° South  Level Estimated
11:43PM 47.4499 -122.3118 170° South  Level Estimated